Larimore, North Dakota
Current Conditions -  °F | °C
As of 6:58 PM on Saturday 25 Oct 2014 (Local Time) from KRDR Reporting Station
Clear Clear  
Wind Chill: 41°   Ceiling: Unl
Heat Index: 45°   Visibility: 10mi
Dew Point: 26°   Wind: 8mph
Humidity: 48%   Direction: 270°W
Pressure: 30.03"   Gusts: NA
Location:  47.91°N, 97.63°W
Report Text: KRDR 252358Z AUTO 27007KT 10SM CLR 07/M03 A3003 RMK AO2 SLP181 T00721032 10162 20072 57010
Loading
Personal Weather Stations






























Interactive Weather Map
Tropical Storm Tracking
New forecast layout! Learn more

10-Day Weather Forecast

Advertisements
Track Severe Weather on mobile